createdAt,value
2023-04-07T00:00:45.034Z,7.38
2023-04-07T00:03:14.873Z,7.37
2023-04-07T00:05:44.149Z,7.47
2023-04-07T00:08:12.625Z,7.40
2023-04-07T00:10:40.810Z,7.36
2023-04-07T00:13:10.397Z,7.41
2023-04-07T00:15:38.714Z,7.39
2023-04-07T00:18:07.241Z,7.36
2023-04-07T00:20:35.830Z,7.28
2023-04-07T00:23:03.923Z,7.41
2023-04-07T00:25:33.351Z,7.46
2023-04-07T00:28:01.816Z,7.50
2023-04-07T00:30:37.005Z,7.62
2023-04-07T00:33:05.890Z,7.73
2023-04-07T00:35:38.313Z,7.85
2023-04-07T00:38:07.254Z,7.67
2023-04-07T00:40:36.892Z,7.72
2023-04-07T00:43:07.262Z,7.83
2023-04-07T00:45:36.854Z,7.79
2023-04-07T00:48:05.682Z,7.67
2023-04-07T00:50:34.518Z,7.75
2023-04-07T00:53:02.783Z,7.71
2023-04-07T00:55:31.062Z,7.72
2023-04-07T00:57:59.486Z,7.78
2023-04-07T01:00:27.861Z,7.85
2023-04-07T01:03:02.317Z,7.77
2023-04-07T01:05:41.411Z,7.75
2023-04-07T01:08:12.722Z,7.74
2023-04-07T01:10:52.705Z,7.78
2023-04-07T01:13:29.376Z,7.79
2023-04-07T01:16:10.167Z,7.75
2023-04-07T01:18:43.649Z,7.82
2023-04-07T01:21:16.798Z,7.99
2023-04-07T01:24:15.664Z,7.95
2023-04-07T01:26:44.682Z,8.05
2023-04-07T01:29:31.460Z,8.11
2023-04-07T01:34:30.873Z,8.07
2023-04-07T01:36:59.771Z,8.11
2023-04-07T01:39:28.337Z,8.09
2023-04-07T01:41:56.513Z,8.13
2023-04-07T01:44:24.995Z,8.21
2023-04-07T01:46:54.240Z,8.29
2023-04-07T01:49:22.726Z,8.31
2023-04-07T01:51:50.900Z,8.35
2023-04-07T01:54:19.252Z,8.30
2023-04-07T01:56:48.305Z,8.32
2023-04-07T01:59:17.774Z,8.29
2023-04-07T02:01:46.691Z,8.21
2023-04-07T02:04:26.283Z,8.27
2023-04-07T02:07:04.194Z,8.28
2023-04-07T02:09:38.832Z,8.34
2023-04-07T02:12:09.147Z,8.35
2023-04-07T02:14:40.082Z,8.30
2023-04-07T02:17:11.115Z,8.23
2023-04-07T02:19:42.174Z,8.38
2023-04-07T02:22:11.328Z,8.45
2023-04-07T02:24:44.004Z,8.49
2023-04-07T02:27:12.454Z,8.51
2023-04-07T02:29:40.947Z,8.51
2023-04-07T02:32:09.913Z,8.49
2023-04-07T02:34:38.613Z,8.40
2023-04-07T02:37:10.960Z,8.40
2023-04-07T02:39:40.626Z,8.44
2023-04-07T02:42:08.828Z,8.51
2023-04-07T02:44:37.417Z,8.34
2023-04-07T02:47:06.042Z,8.50
2023-04-07T02:49:34.918Z,8.51
2023-04-07T02:52:03.127Z,8.47
2023-04-07T02:54:31.851Z,8.36
2023-04-07T02:57:01.320Z,8.45
2023-04-07T02:59:32.004Z,8.51
2023-04-07T03:02:00.840Z,8.59
2023-04-07T03:04:31.916Z,8.54
2023-04-07T03:07:01.793Z,8.52
2023-04-07T03:09:32.828Z,8.41
2023-04-07T03:12:02.400Z,8.38
2023-04-07T03:14:34.257Z,8.36
2023-04-07T03:17:11.723Z,8.41
2023-04-07T03:19:40.628Z,8.41
2023-04-07T03:22:09.225Z,8.29
2023-04-07T03:24:41.383Z,8.24
2023-04-07T03:27:09.616Z,8.23
2023-04-07T03:29:42.379Z,8.51
2023-04-07T03:32:12.159Z,8.49
2023-04-07T03:34:40.898Z,8.55
2023-04-07T03:37:09.728Z,8.63
2023-04-07T03:39:39.430Z,8.35
2023-04-07T03:42:17.082Z,8.41
2023-04-07T03:44:46.444Z,8.48
2023-04-07T03:47:14.773Z,8.64
2023-04-07T03:49:42.984Z,8.59
2023-04-07T03:52:12.346Z,8.54
2023-04-07T03:54:44.610Z,8.42
2023-04-07T03:57:13.032Z,8.46
2023-04-07T03:59:47.157Z,8.47
2023-04-07T04:02:16.166Z,8.51
2023-04-07T04:04:44.701Z,8.30
2023-04-07T04:07:14.086Z,8.20
2023-04-07T04:09:50.127Z,8.27
2023-04-07T04:12:18.735Z,8.36
2023-04-07T04:14:55.594Z,8.41
2023-04-07T04:17:25.510Z,8.50
2023-04-07T04:19:55.459Z,8.46
2023-04-07T04:22:28.521Z,8.25
2023-04-07T04:24:59.639Z,8.20
2023-04-07T04:27:35.881Z,8.28
2023-04-07T04:30:08.473Z,8.33
2023-04-07T04:32:50.699Z,8.35
2023-04-07T04:35:26.218Z,8.39
2023-04-07T04:38:07.452Z,8.48
2023-04-07T04:40:37.986Z,8.50
2023-04-07T04:43:07.367Z,8.61
2023-04-07T04:45:36.969Z,8.62
2023-04-07T04:48:07.698Z,8.53
2023-04-07T04:50:36.624Z,8.66
2023-04-07T04:53:11.489Z,8.72
2023-04-07T04:55:52.242Z,8.69
2023-04-07T04:58:29.271Z,8.65
2023-04-07T05:01:00.502Z,8.63
2023-04-07T05:03:38.585Z,8.61
2023-04-07T05:06:13.104Z,8.65
2023-04-07T05:08:54.753Z,8.68
2023-04-07T05:11:26.758Z,8.61
2023-04-07T05:13:56.566Z,8.53
2023-04-07T05:16:29.888Z,8.48
2023-04-07T05:18:59.331Z,8.57
2023-04-07T05:21:27.840Z,8.60
2023-04-07T05:24:09.373Z,8.62
2023-04-07T05:26:39.801Z,8.69
2023-04-07T05:29:08.011Z,8.75
2023-04-07T05:31:37.862Z,8.85
2023-04-07T05:34:09.245Z,8.88
2023-04-07T05:36:40.104Z,8.95
2023-04-07T05:39:12.870Z,9.18
2023-04-07T05:41:42.544Z,9.18
2023-04-07T05:44:11.373Z,9.06
2023-04-07T05:46:42.616Z,9.19
2023-04-07T05:49:19.454Z,9.20
2023-04-07T05:51:53.334Z,9.15
2023-04-07T05:54:23.411Z,9.12
2023-04-07T05:56:54.633Z,9.19
2023-04-07T05:59:23.301Z,9.21
2023-04-07T06:01:57.743Z,9.25
2023-04-07T06:04:27.548Z,9.16
2023-04-07T06:06:56.140Z,9.17
2023-04-07T06:09:27.186Z,9.24
2023-04-07T06:11:58.098Z,9.22
2023-04-07T06:14:29.483Z,9.30
2023-04-07T06:17:04.312Z,9.45
2023-04-07T06:19:34.207Z,9.49
2023-04-07T06:22:08.622Z,9.56
2023-04-07T06:24:42.403Z,9.52
2023-04-07T06:27:18.672Z,9.60
2023-04-07T06:29:49.503Z,9.64
2023-04-07T06:32:17.812Z,9.67
2023-04-07T06:34:47.836Z,9.73
2023-04-07T06:37:18.451Z,9.59
2023-04-07T06:39:49.480Z,9.52
2023-04-07T06:42:18.009Z,9.55
2023-04-07T06:44:53.482Z,9.77
2023-04-07T06:47:22.148Z,9.78
2023-04-07T06:49:50.834Z,9.80
2023-04-07T06:52:19.137Z,9.80
2023-04-07T06:54:47.854Z,9.87
2023-04-07T06:57:20.190Z,9.90
2023-04-07T06:59:48.780Z,9.95
2023-04-07T07:02:18.066Z,9.96
2023-04-07T07:04:47.183Z,9.94
2023-04-07T07:07:18.830Z,9.91
2023-04-07T07:09:50.986Z,9.87
2023-04-07T07:12:21.900Z,9.93
2023-04-07T07:14:50.226Z,9.98
2023-04-07T07:17:18.641Z,10.06
2023-04-07T07:19:46.983Z,9.97
2023-04-07T07:22:15.891Z,9.88
2023-04-07T07:24:47.153Z,9.96
2023-04-07T07:27:16.156Z,9.86
2023-04-07T07:29:44.690Z,9.86
2023-04-07T07:32:13.431Z,9.89
2023-04-07T07:34:44.067Z,9.85
2023-04-07T07:37:13.106Z,9.81
2023-04-07T07:39:41.941Z,9.73
2023-04-07T07:42:13.257Z,9.69
2023-04-07T07:44:46.065Z,9.77
2023-04-07T07:47:15.403Z,9.85
2023-04-07T07:49:53.903Z,9.74
2023-04-07T07:52:22.336Z,9.67
2023-04-07T07:54:55.286Z,9.56
2023-04-07T07:57:25.300Z,9.52
2023-04-07T07:59:56.948Z,9.56
2023-04-07T08:02:31.030Z,9.60
2023-04-07T08:05:03.079Z,9.68
2023-04-07T08:07:40.085Z,9.76
2023-04-07T08:10:10.150Z,9.80
2023-04-07T08:12:48.363Z,9.73
2023-04-07T08:15:24.204Z,9.82
2023-04-07T08:17:54.716Z,9.99
2023-04-07T08:20:27.693Z,10.03
2023-04-07T08:22:56.083Z,10.18
2023-04-07T08:25:26.295Z,10.22
2023-04-07T08:28:03.663Z,10.38
2023-04-07T08:30:37.320Z,10.36
2023-04-07T08:33:09.878Z,10.49
2023-04-07T08:35:38.546Z,10.54
2023-04-07T08:38:11.257Z,10.58
2023-04-07T08:40:39.837Z,10.79
2023-04-07T08:43:11.716Z,10.92
2023-04-07T08:45:47.503Z,10.96
2023-04-07T08:48:20.787Z,10.99
2023-04-07T08:50:53.066Z,11.01
2023-04-07T08:53:29.742Z,11.08
2023-04-07T08:56:08.854Z,11.19
2023-04-07T08:58:51.185Z,11.22
2023-04-07T09:01:33.831Z,11.31
2023-04-07T09:04:09.448Z,11.35
2023-04-07T09:06:38.424Z,11.42
2023-04-07T09:09:06.991Z,11.34
2023-04-07T09:11:44.711Z,11.36
2023-04-07T09:14:19.182Z,11.36
2023-04-07T09:16:57.411Z,11.32
2023-04-07T09:19:27.756Z,11.24
2023-04-07T09:21:56.478Z,11.17
2023-04-07T09:24:26.618Z,11.19
2023-04-07T09:27:12.758Z,11.14
2023-04-07T09:29:43.500Z,11.13
2023-04-07T09:32:14.897Z,11.14
2023-04-07T09:34:46.633Z,11.13
2023-04-07T09:37:23.009Z,11.08
2023-04-07T09:39:55.271Z,11.00
2023-04-07T09:42:24.472Z,11.00
2023-04-07T09:44:53.755Z,11.02
2023-04-07T09:47:29.463Z,11.03
2023-04-07T09:49:59.479Z,11.07
2023-04-07T09:52:57.159Z,11.06
2023-04-07T09:55:32.227Z,11.04
2023-04-07T09:58:02.585Z,11.06
2023-04-07T10:00:40.403Z,11.14
2023-04-07T10:03:22.543Z,11.21
2023-04-07T10:05:54.778Z,11.24
2023-04-07T10:08:29.631Z,11.20
2023-04-07T10:11:08.708Z,11.20
2023-04-07T10:13:44.384Z,11.27
2023-04-07T10:16:22.069Z,11.31
2023-04-07T10:18:52.354Z,11.32
2023-04-07T10:21:24.757Z,11.35
2023-04-07T10:24:00.352Z,11.40
2023-04-07T10:26:31.512Z,11.48
2023-04-07T10:29:07.563Z,11.61
2023-04-07T10:31:38.746Z,11.71
2023-04-07T10:34:13.841Z,11.76
2023-04-07T10:37:13.546Z,11.79
2023-04-07T10:39:44.815Z,11.81
2023-04-07T10:42:38.613Z,11.79
2023-04-07T10:45:13.870Z,11.75
2023-04-07T10:48:01.791Z,11.72
2023-04-07T10:50:30.262Z,11.78
2023-04-07T10:53:08.650Z,11.72
2023-04-07T10:55:43.528Z,11.69
2023-04-07T10:58:33.031Z,11.69
2023-04-07T11:01:01.944Z,11.68
2023-04-07T11:03:33.273Z,11.75
2023-04-07T11:06:09.514Z,11.90
2023-04-07T11:08:49.491Z,12.01
2023-04-07T11:11:40.355Z,12.02
2023-04-07T11:14:37.001Z,12.13
2023-04-07T11:17:05.828Z,12.25
2023-04-07T11:19:52.252Z,12.36
2023-04-07T11:22:30.026Z,12.38
2023-04-07T11:25:00.269Z,12.43
2023-04-07T11:27:33.100Z,12.53
2023-04-07T11:30:03.031Z,12.53
2023-04-07T11:32:33.830Z,12.56
2023-04-07T11:35:09.006Z,12.60
2023-04-07T11:37:38.954Z,12.51
2023-04-07T11:40:08.326Z,12.42
2023-04-07T11:42:40.299Z,12.28
2023-04-07T11:45:19.663Z,12.18
2023-04-07T11:47:49.985Z,12.00
2023-04-07T11:50:18.286Z,11.89
2023-04-07T11:52:48.177Z,11.84
2023-04-07T11:55:24.756Z,11.84
2023-04-07T11:57:53.370Z,11.91
2023-04-07T12:00:22.618Z,11.92
2023-04-07T12:02:52.013Z,11.75
2023-04-07T12:05:25.224Z,11.64
2023-04-07T12:07:54.806Z,11.63
2023-04-07T12:10:27.302Z,11.58
2023-04-07T12:13:07.766Z,11.59
2023-04-07T12:15:38.094Z,11.53
2023-04-07T12:18:07.056Z,11.49
2023-04-07T12:20:37.503Z,11.47
2023-04-07T12:23:07.089Z,11.49
2023-04-07T12:25:35.464Z,11.50
2023-04-07T12:28:10.753Z,11.53
2023-04-07T12:30:39.371Z,11.63
2023-04-07T12:33:07.780Z,11.76
2023-04-07T12:35:37.007Z,11.92
2023-04-07T12:38:05.907Z,11.96
2023-04-07T12:40:39.750Z,11.93
2023-04-07T12:43:15.855Z,11.83
2023-04-07T12:45:44.161Z,11.81
2023-04-07T12:48:14.665Z,11.82
2023-04-07T12:50:42.891Z,11.79
2023-04-07T12:53:10.950Z,11.70
2023-04-07T12:55:39.270Z,11.68
2023-04-07T12:58:09.553Z,11.76
2023-04-07T13:00:38.444Z,11.90
2023-04-07T13:03:13.038Z,11.91
2023-04-07T13:05:41.471Z,12.00
2023-04-07T13:08:10.562Z,12.01
2023-04-07T13:10:40.194Z,12.02
2023-04-07T13:13:15.181Z,11.96
2023-04-07T13:15:46.002Z,11.85
2023-04-07T13:18:14.354Z,11.75
2023-04-07T13:20:45.333Z,11.66
2023-04-07T13:23:19.301Z,11.69
2023-04-07T13:25:48.030Z,11.70
2023-04-07T13:28:20.752Z,11.66
2023-04-07T13:30:49.055Z,11.56
2023-04-07T13:33:17.495Z,11.41
2023-04-07T13:35:46.061Z,11.36
2023-04-07T13:38:15.657Z,11.28
2023-04-07T13:40:45.075Z,11.23
2023-04-07T13:43:13.669Z,11.18
2023-04-07T13:45:42.111Z,11.14
2023-04-07T13:48:10.484Z,11.07
2023-04-07T13:50:39.291Z,11.04
2023-04-07T13:53:07.766Z,11.06
2023-04-07T13:55:37.031Z,11.11
2023-04-07T13:58:06.628Z,11.11
2023-04-07T14:00:36.148Z,11.14
2023-04-07T14:03:09.747Z,11.22
2023-04-07T14:05:38.563Z,11.32
2023-04-07T14:08:06.680Z,11.47
2023-04-07T14:10:36.373Z,11.43
2023-04-07T14:13:04.694Z,11.36
2023-04-07T14:15:34.206Z,11.43
2023-04-07T14:18:02.466Z,11.46
2023-04-07T14:20:30.826Z,11.48
2023-04-07T14:22:59.850Z,11.46
2023-04-07T14:25:28.302Z,11.34
2023-04-07T14:28:00.672Z,11.23
2023-04-07T14:30:30.964Z,11.17
2023-04-07T14:33:01.071Z,11.14
2023-04-07T14:35:33.976Z,11.11
2023-04-07T14:38:02.931Z,11.07
2023-04-07T14:40:31.938Z,11.07
2023-04-07T14:45:33.054Z,11.11
2023-04-07T14:48:03.101Z,11.00
2023-04-07T14:50:34.715Z,10.93
2023-04-07T14:53:03.632Z,10.85
2023-04-07T14:55:33.070Z,10.75
2023-04-07T14:58:01.475Z,10.66
2023-04-07T15:00:30.181Z,10.56
2023-04-07T15:03:16.675Z,10.51
2023-04-07T15:05:45.655Z,10.50
2023-04-07T15:08:14.537Z,10.51
2023-04-07T15:10:42.897Z,10.52
2023-04-07T15:13:11.381Z,10.52
2023-04-07T15:15:39.634Z,10.57
2023-04-07T15:18:08.047Z,10.56
2023-04-07T15:20:36.366Z,10.57
2023-04-07T15:23:04.755Z,10.61
2023-04-07T15:25:33.220Z,10.66
2023-04-07T15:28:01.610Z,10.57
2023-04-07T15:30:29.923Z,10.53
2023-04-07T15:33:00.455Z,10.44
2023-04-07T15:35:29.810Z,10.33
2023-04-07T15:37:58.144Z,10.34
2023-04-07T15:40:26.342Z,10.42
2023-04-07T15:42:55.605Z,10.50
2023-04-07T15:45:24.088Z,10.31
2023-04-07T15:47:53.230Z,10.27
2023-04-07T15:50:22.091Z,10.14
2023-04-07T15:52:50.866Z,10.12
2023-04-07T15:55:19.613Z,10.01
2023-04-07T15:57:48.269Z,10.02
2023-04-07T16:00:18.186Z,9.96
2023-04-07T16:02:57.780Z,9.99
2023-04-07T16:05:26.120Z,9.90
2023-04-07T16:07:54.345Z,9.88
2023-04-07T16:10:23.059Z,9.84
2023-04-07T16:12:52.754Z,9.69
2023-04-07T16:15:36.498Z,9.64
2023-04-07T16:18:10.779Z,9.53
2023-04-07T16:20:41.829Z,9.51
2023-04-07T16:23:10.892Z,9.67
2023-04-07T16:25:39.673Z,9.53
2023-04-07T16:28:08.114Z,9.47
2023-04-07T16:30:37.691Z,9.40
2023-04-07T16:33:16.261Z,9.56
2023-04-07T16:35:44.550Z,9.56
2023-04-07T16:38:13.804Z,9.59
2023-04-07T16:41:03.175Z,9.55
2023-04-07T16:43:37.871Z,9.42
2023-04-07T16:46:10.809Z,9.27
2023-04-07T16:48:39.063Z,9.21
2023-04-07T16:51:07.482Z,9.16
2023-04-07T16:57:00.467Z,9.19
2023-04-07T16:59:35.690Z,9.36
2023-04-07T17:02:16.958Z,9.35
2023-04-07T17:04:46.231Z,9.37
2023-04-07T17:07:15.208Z,9.35
2023-04-07T17:09:43.903Z,9.28
2023-04-07T17:12:13.765Z,9.28
2023-04-07T17:14:42.285Z,9.36
2023-04-07T17:17:10.698Z,9.31
2023-04-07T17:19:39.976Z,9.19
2023-04-07T17:22:08.278Z,9.14
2023-04-07T17:24:37.800Z,9.14
2023-04-07T17:27:06.221Z,9.15
2023-04-07T17:29:36.222Z,9.10
2023-04-07T17:32:04.910Z,9.10
2023-04-07T17:34:33.336Z,9.20
2023-04-07T17:37:01.569Z,9.20
2023-04-07T17:39:29.875Z,9.24
2023-04-07T17:41:58.353Z,9.27
2023-04-07T17:44:27.447Z,9.32
2023-04-07T17:46:55.963Z,9.41
2023-04-07T17:49:25.123Z,9.41
2023-04-07T17:51:54.255Z,9.55
2023-04-07T17:54:22.630Z,9.69
2023-04-07T17:56:50.904Z,9.66
2023-04-07T17:59:19.215Z,9.49
2023-04-07T18:01:51.778Z,9.28
2023-04-07T18:04:21.524Z,9.28
2023-04-07T18:06:50.330Z,9.30
2023-04-07T18:09:18.513Z,9.29
2023-04-07T18:11:49.370Z,9.32
2023-04-07T18:14:19.304Z,9.36
2023-04-07T18:16:48.263Z,9.35
2023-04-07T18:19:18.614Z,9.29
2023-04-07T18:21:47.406Z,9.19
2023-04-07T18:24:17.434Z,9.17
2023-04-07T18:26:46.139Z,9.05
2023-04-07T18:29:15.007Z,9.02
2023-04-07T18:31:43.577Z,8.99
2023-04-07T18:34:12.106Z,8.91
2023-04-07T18:36:43.147Z,8.92
2023-04-07T18:39:11.382Z,9.12
2023-04-07T18:41:44.579Z,9.14
2023-04-07T18:44:13.249Z,9.03
2023-04-07T18:46:42.094Z,8.95
2023-04-07T18:49:10.486Z,8.86
2023-04-07T18:51:39.175Z,8.81
2023-04-07T18:54:07.390Z,8.73
2023-04-07T18:56:35.676Z,8.67
2023-04-07T18:59:03.938Z,8.65
2023-04-07T19:01:34.475Z,8.62
2023-04-07T19:04:05.022Z,8.56
2023-04-07T19:06:33.492Z,8.53
2023-04-07T19:09:04.286Z,8.54
2023-04-07T19:11:32.882Z,8.54
2023-04-07T19:14:01.130Z,8.63
2023-04-07T19:16:29.780Z,8.56
2023-04-07T19:18:58.150Z,8.57
2023-04-07T19:21:27.720Z,8.57
2023-04-07T19:23:59.863Z,8.57
2023-04-07T19:26:29.660Z,8.61
2023-04-07T19:28:57.749Z,8.55
2023-04-07T19:31:26.191Z,8.55
2023-04-07T19:33:54.408Z,8.47
2023-04-07T19:36:22.627Z,8.41
2023-04-07T19:38:51.671Z,8.44
2023-04-07T19:41:21.394Z,8.46
2023-04-07T19:43:50.722Z,8.42
2023-04-07T19:46:19.057Z,8.49
2023-04-07T19:48:48.195Z,8.48
2023-04-07T19:51:17.458Z,8.51
2023-04-07T19:53:47.672Z,8.50
2023-04-07T19:56:17.357Z,8.55
2023-04-07T19:58:45.433Z,8.49
2023-04-07T20:01:18.162Z,8.42
2023-04-07T20:03:47.001Z,8.43
2023-04-07T20:06:15.652Z,8.49
2023-04-07T20:08:45.013Z,8.53
2023-04-07T20:11:13.577Z,8.48
2023-04-07T20:13:43.947Z,8.47
2023-04-07T20:16:14.268Z,8.43
2023-04-07T20:18:43.191Z,8.47
2023-04-07T20:21:13.525Z,8.51
2023-04-07T20:23:42.385Z,8.54
2023-04-07T20:26:10.594Z,8.47
2023-04-07T20:28:41.694Z,8.37
2023-04-07T20:31:10.041Z,8.37
2023-04-07T20:33:38.283Z,8.40
2023-04-07T20:36:07.166Z,8.31
2023-04-07T20:38:35.587Z,8.12
2023-04-07T20:41:04.695Z,8.07
2023-04-07T20:43:34.409Z,8.06
2023-04-07T20:46:02.727Z,8.06
2023-04-07T20:48:32.887Z,8.02
2023-04-07T20:51:01.690Z,8.01
2023-04-07T20:53:29.961Z,7.98
2023-04-07T20:55:59.480Z,7.95
2023-04-07T20:58:27.768Z,7.98
2023-04-07T21:01:00.840Z,7.96
2023-04-07T21:03:31.091Z,7.93
2023-04-07T21:05:59.662Z,7.94
2023-04-07T21:08:31.751Z,7.93
2023-04-07T21:11:01.677Z,7.90
2023-04-07T21:13:30.455Z,7.85
2023-04-07T21:16:03.425Z,7.99
2023-04-07T21:18:33.564Z,7.99
2023-04-07T21:21:02.403Z,8.04
2023-04-07T21:23:32.730Z,8.05
2023-04-07T21:26:02.335Z,8.06
2023-04-07T21:28:35.429Z,8.10
2023-04-07T21:31:04.606Z,8.16
2023-04-07T21:33:33.210Z,8.14
2023-04-07T21:36:02.454Z,8.02
2023-04-07T21:38:31.691Z,8.07
2023-04-07T21:41:00.111Z,8.06
2023-04-07T21:43:29.250Z,8.01
2023-04-07T21:45:57.531Z,7.86
2023-04-07T21:48:25.795Z,7.89
2023-04-07T21:50:53.983Z,7.84
2023-04-07T21:53:22.729Z,7.85
2023-04-07T21:55:52.023Z,7.84
2023-04-07T21:58:23.713Z,7.92
2023-04-07T22:00:53.443Z,7.93
2023-04-07T22:03:22.303Z,7.93
2023-04-07T22:05:51.826Z,7.97
2023-04-07T22:08:20.179Z,7.97
2023-04-07T22:10:48.257Z,8.04
2023-04-07T22:13:16.461Z,7.99
2023-04-07T22:15:44.867Z,7.93
2023-04-07T22:18:13.650Z,7.87
2023-04-07T22:20:42.062Z,7.96
2023-04-07T22:23:10.602Z,8.02
2023-04-07T22:25:39.287Z,7.87
2023-04-07T22:28:08.092Z,7.86
2023-04-07T22:30:36.256Z,7.86
2023-04-07T22:33:07.060Z,7.84
2023-04-07T22:35:36.513Z,7.86
2023-04-07T22:38:06.107Z,7.87
2023-04-07T22:40:35.381Z,7.90
2023-04-07T22:43:03.699Z,7.90
2023-04-07T22:45:32.392Z,7.99
2023-04-07T22:48:00.630Z,7.90
2023-04-07T22:50:33.829Z,7.89
2023-04-07T22:53:02.296Z,8.02
2023-04-07T22:55:30.620Z,7.96
2023-04-07T22:57:58.747Z,7.86
2023-04-07T23:00:27.066Z,7.86
2023-04-07T23:02:58.116Z,7.92
2023-04-07T23:05:27.415Z,7.89
2023-04-07T23:07:55.865Z,7.89
2023-04-07T23:10:26.167Z,7.92
2023-04-07T23:12:55.168Z,7.91
2023-04-07T23:15:23.440Z,7.92
2023-04-07T23:17:56.722Z,7.94
2023-04-07T23:20:26.124Z,7.93
2023-04-07T23:22:59.648Z,7.83
2023-04-07T23:25:28.738Z,7.80
2023-04-07T23:27:56.947Z,8.04
2023-04-07T23:30:25.199Z,7.89
2023-04-07T23:32:54.396Z,7.75
2023-04-07T23:35:22.573Z,7.78
2023-04-07T23:37:51.904Z,7.73
2023-04-07T23:40:20.318Z,7.54
2023-04-07T23:42:48.874Z,7.37
2023-04-07T23:45:18.740Z,7.31
2023-04-07T23:47:50.396Z,7.29
2023-04-07T23:50:18.681Z,7.24
2023-04-07T23:52:47.053Z,7.24
2023-04-07T23:55:15.172Z,7.24
2023-04-07T23:57:43.330Z,7.21
